Time;durP1;ratioP1;P1;durP2;ratioP2;P2;SDS_P1;SDS_P2;PMS_P1;PMS_P2;Temp;Humidity;BMP_temperature;BMP_pressure;BME280_temperature;BME280_humidity;BME280_pressure;Samples;Min_cycle;Max_cycle;Signal;HPM_P1;HPM_P2
2022/03/13 00:02:13;;;;;;;17.30;8.80;;;;;;;-3.00;57.78;101556.00;5068330;28;20464;-72
2022/03/13 00:04:40;;;;;;;18.27;9.30;;;;;;;-3.03;58.16;101558.41;5068194;28;20478;-71
2022/03/13 00:07:09;;;;;;;16.33;8.67;;;;;;;-3.06;59.14;101551.50;5068995;28;20537;-72
2022/03/13 00:09:37;;;;;;;21.97;12.07;;;;;;;-3.08;59.64;101557.31;5071809;28;20459;-73
2022/03/13 00:12:10;;;;;;;21.47;10.40;;;;;;;-3.13;59.87;101551.13;5076431;28;20459;-71
2022/03/13 00:14:42;;;;;;;17.90;9.27;;;;;;;-3.19;59.40;101551.75;5069469;28;20631;-72
2022/03/13 00:17:09;;;;;;;15.57;8.93;;;;;;;-3.27;61.67;101543.75;5074292;28;20490;-71
2022/03/13 00:19:35;;;;;;;17.73;10.00;;;;;;;-3.30;59.89;101548.72;5068847;28;20453;-71
2022/03/13 00:22:04;;;;;;;21.60;9.63;;;;;;;-3.29;62.08;101547.03;5067749;28;20446;-70
2022/03/13 00:24:31;;;;;;;16.30;9.43;;;;;;;-3.28;58.59;101539.44;5070307;28;20473;-72
2022/03/13 00:26:59;;;;;;;16.63;8.07;;;;;;;-3.17;57.55;101544.16;5069838;28;21132;-73
2022/03/13 00:29:30;;;;;;;17.90;9.67;;;;;;;-3.12;56.20;101545.25;5048339;28;20709;-70
2022/03/13 00:31:56;;;;;;;15.10;7.90;;;;;;;-3.09;55.42;101547.94;5068144;28;20457;-71
2022/03/13 00:34:23;;;;;;;14.53;8.50;;;;;;;-3.14;56.88;101541.75;5073882;28;20465;-71
2022/03/13 00:36:50;;;;;;;16.67;8.00;;;;;;;-3.13;55.73;101556.25;5067650;28;20460;-73
2022/03/13 00:39:17;;;;;;;15.80;9.00;;;;;;;-3.16;55.67;101544.22;5068630;28;20550;-71
2022/03/13 00:41:46;;;;;;;16.23;8.53;;;;;;;-3.18;56.87;101547.50;5068474;28;21011;-71
2022/03/13 00:44:12;;;;;;;15.17;9.03;;;;;;;-3.24;56.78;101545.56;5066537;28;20478;-71
2022/03/13 00:46:40;;;;;;;15.10;8.50;;;;;;;-3.29;56.91;101542.81;5066247;28;20472;-72
2022/03/13 00:49:07;;;;;;;20.47;9.40;;;;;;;-3.38;58.50;101541.53;5069066;28;21051;-71
2022/03/13 00:51:33;;;;;;;22.37;12.30;;;;;;;-3.47;59.76;101545.38;5067129;28;20449;-70
2022/03/13 00:54:00;;;;;;;18.97;11.43;;;;;;;-3.54;60.25;101533.16;5068783;28;20449;-71
2022/03/13 00:56:26;;;;;;;15.80;9.90;;;;;;;-3.57;61.62;101530.50;5071859;28;20457;-72
2022/03/13 00:58:52;;;;;;;17.47;8.83;;;;;;;-3.63;60.88;101525.97;5071988;28;20499;-73
2022/03/13 01:01:19;;;;;;;19.50;9.47;;;;;;;-3.65;60.34;101522.47;5067368;28;20462;-74
2022/03/13 01:03:51;;;;;;;19.53;9.43;;;;;;;-3.65;60.76;101522.47;5071544;28;20484;-71
2022/03/13 01:06:19;;;;;;;15.87;8.40;;;;;;;-3.64;61.47;101519.16;5055431;28;20458;-73
2022/03/13 01:08:48;;;;;;;16.07;9.03;;;;;;;-3.65;60.76;101519.06;5066137;28;20504;-73
2022/03/13 01:11:16;;;;;;;15.13;8.33;;;;;;;-3.64;60.93;101520.78;5067847;28;20453;-71
2022/03/13 01:13:43;;;;;;;17.23;8.40;;;;;;;-3.65;60.66;101524.16;5066119;28;20446;-71
2022/03/13 01:16:15;;;;;;;15.80;8.43;;;;;;;-3.66;60.30;101517.31;5057906;28;20459;-72
2022/03/13 01:18:45;;;;;;;17.67;8.27;;;;;;;-3.66;59.44;101522.41;5071646;28;20462;-75
2022/03/13 01:21:14;;;;;;;18.83;8.50;;;;;;;-3.66;59.64;101524.97;5070862;28;20452;-72
2022/03/13 01:23:42;;;;;;;16.97;8.30;;;;;;;-3.71;60.22;101521.31;5065010;28;20474;-72
2022/03/13 01:26:37;;;;;;;14.40;7.70;;;;;;;-3.73;60.68;101522.94;5062844;28;20445;-70
2022/03/13 01:29:06;;;;;;;12.13;7.33;;;;;;;-3.71;59.44;101519.66;5064818;28;20998;-72
2022/03/13 01:31:35;;;;;;;18.83;8.63;;;;;;;-3.72;59.90;101517.03;5067630;28;20887;-73
2022/03/13 01:34:02;;;;;;;18.43;9.40;;;;;;;-3.73;59.20;101518.72;5066017;28;20457;-71
2022/03/13 01:36:30;;;;;;;18.27;8.60;;;;;;;-3.74;59.44;101516.97;5047133;28;20461;-72
2022/03/13 01:38:58;;;;;;;18.07;8.70;;;;;;;-3.77;59.78;101518.50;5072518;28;20464;-71
2022/03/13 01:41:27;;;;;;;18.87;8.17;;;;;;;-3.76;59.90;101516.03;5068188;28;20443;-71
2022/03/13 01:43:54;;;;;;;14.33;7.83;;;;;;;-3.81;60.00;101520.03;5073273;28;20472;-72
2022/03/13 01:46:20;;;;;;;17.87;8.70;;;;;;;-3.82;59.92;101520.81;5067023;28;20445;-71
2022/03/13 01:48:53;;;;;;;16.60;8.03;;;;;;;-3.75;59.52;101520.31;5069447;28;21032;-73
2022/03/13 01:51:20;;;;;;;16.47;8.67;;;;;;;-3.76;59.51;101518.56;5068696;28;20461;-72
2022/03/13 01:53:52;;;;;;;18.17;8.30;;;;;;;-3.75;59.57;101524.53;5067109;28;20454;-73
2022/03/13 01:56:18;;;;;;;17.37;7.97;;;;;;;-3.78;60.77;101514.19;5068617;28;20454;-73
2022/03/13 01:58:45;;;;;;;17.77;8.53;;;;;;;-3.80;60.09;101514.13;5067676;28;20545;-71
2022/03/13 02:01:12;;;;;;;15.03;8.17;;;;;;;-3.78;60.20;101521.84;5076867;28;20449;-70
2022/03/13 02:03:38;;;;;;;17.30;8.63;;;;;;;-3.83;59.95;101512.31;5066943;28;20497;-73
2022/03/13 02:06:05;;;;;;;15.50;8.30;;;;;;;-3.82;59.81;101514.06;5073847;28;20453;-71
2022/03/13 02:08:35;;;;;;;14.00;7.90;;;;;;;-3.85;59.47;101513.94;5072758;28;20462;-72
2022/03/13 02:11:04;;;;;;;17.33;7.93;;;;;;;-3.86;59.46;101517.25;5072571;28;20463;-71
2022/03/13 02:13:34;;;;;;;14.70;7.53;;;;;;;-3.83;58.86;101519.09;5068325;28;20471;-73
2022/03/13 02:16:02;;;;;;;13.87;8.57;;;;;;;-3.85;59.42;101518.16;5067128;28;20442;-71
2022/03/13 02:18:28;;;;;;;17.37;8.37;;;;;;;-3.85;58.75;101515.63;5066910;28;20458;-72
2022/03/13 02:20:55;;;;;;;15.57;8.10;;;;;;;-3.83;59.16;101514.00;5066234;28;20552;-70
2022/03/13 02:23:24;;;;;;;17.73;9.07;;;;;;;-3.88;59.23;101515.47;5066770;28;20453;-74
2022/03/13 02:25:56;;;;;;;23.77;8.57;;;;;;;-3.88;59.25;101518.88;5065879;28;20440;-71
2022/03/13 02:28:24;;;;;;;16.40;8.53;;;;;;;-3.85;59.41;101515.63;5066561;28;21003;-71
2022/03/13 02:30:52;;;;;;;18.20;7.93;;;;;;;-3.83;58.83;101519.09;5067953;28;20452;-71
2022/03/13 02:33:21;;;;;;;17.67;8.13;;;;;;;-3.85;58.93;101513.94;5075289;28;20453;-71
2022/03/13 02:35:52;;;;;;;17.40;8.30;;;;;;;-3.78;58.67;101520.19;5067785;28;20990;-70
2022/03/13 02:38:19;;;;;;;20.43;9.00;;;;;;;-3.70;58.26;101515.44;5048854;28;21056;-71
2022/03/13 02:40:47;;;;;;;21.43;8.60;;;;;;;-3.74;59.42;101522.06;5070185;28;20448;-71
2022/03/13 02:43:13;;;;;;;18.17;8.47;;;;;;;-3.76;59.09;101518.56;5048496;28;20453;-71
2022/03/13 02:45:40;;;;;;;14.67;7.97;;;;;;;-3.80;59.23;101509.03;5072844;28;20477;-71
2022/03/13 02:48:09;;;;;;;20.30;9.53;;;;;;;-3.82;59.41;101513.19;5070208;28;20464;-71
2022/03/13 02:50:36;;;;;;;21.50;8.70;;;;;;;-3.82;59.54;101513.19;5076176;28;20494;-71
2022/03/13 02:53:03;;;;;;;16.90;9.53;;;;;;;-3.77;59.76;101519.38;5069836;28;20452;-72
2022/03/13 02:55:30;;;;;;;18.17;9.50;;;;;;;-3.76;59.58;101523.69;5068430;28;20985;-73
2022/03/13 02:57:59;;;;;;;18.87;9.37;;;;;;;-3.75;60.49;101512.66;5059219;28;20479;-71
2022/03/13 03:00:42;;;;;;;19.87;9.93;;;;;;;-3.82;60.05;101515.72;5070750;28;20955;-71
2022/03/13 03:03:08;;;;;;;17.07;9.27;;;;;;;-3.79;60.12;101517.56;5073467;28;20465;-72
2022/03/13 03:05:36;;;;;;;18.37;8.27;;;;;;;-3.80;60.43;101516.66;5051872;28;20558;-71
2022/03/13 03:08:04;;;;;;;20.87;9.70;;;;;;;-3.77;60.63;101516.81;5075002;28;20974;-71
2022/03/13 03:10:31;;;;;;;20.60;9.27;;;;;;;-3.81;61.26;101513.25;5069223;28;20456;-71
2022/03/13 03:12:59;;;;;;;21.17;10.50;;;;;;;-3.78;60.53;101515.09;5074439;28;21009;-71
2022/03/13 03:15:26;;;;;;;18.93;9.90;;;;;;;-3.76;60.50;101513.47;5071063;28;20840;-73
2022/03/13 03:17:52;;;;;;;53.93;22.60;;;;;;;-3.75;60.50;101516.91;5069337;28;20566;-71
2022/03/13 03:20:19;;;;;;;19.83;9.73;;;;;;;-3.72;61.26;101520.47;5069238;28;21307;-73
2022/03/13 03:22:46;;;;;;;19.70;10.63;;;;;;;-3.72;60.79;101524.69;5071798;28;20485;-71
2022/03/13 03:25:12;;;;;;;29.27;9.83;;;;;;;-3.72;60.42;101523.00;5075380;28;20474;-71
2022/03/13 03:27:40;;;;;;;23.03;10.70;;;;;;;-3.74;60.76;101516.97;5076667;28;20495;-71
2022/03/13 03:30:10;;;;;;;18.50;10.27;;;;;;;-3.74;60.51;101523.75;5077124;28;20456;-71
2022/03/13 03:32:37;;;;;;;24.50;10.80;;;;;;;-3.78;61.02;101521.84;5069968;28;20456;-70
2022/03/13 03:35:03;;;;;;;28.13;15.43;;;;;;;-3.84;60.63;101518.19;5069120;28;20456;-72
2022/03/13 03:37:33;;;;;;;20.23;10.80;;;;;;;-3.82;61.34;101518.28;5078736;28;20473;-74
2022/03/13 03:40:00;;;;;;;26.77;13.67;;;;;;;-3.86;60.61;101524.03;5069497;28;21295;-72
2022/03/13 03:42:26;;;;;;;21.03;10.50;;;;;;;-3.87;60.85;101523.19;5051236;28;20971;-71
2022/03/13 03:44:52;;;;;;;24.13;12.00;;;;;;;-3.92;60.80;101521.19;5072272;28;20852;-72
2022/03/13 03:47:20;;;;;;;26.53;12.50;;;;;;;-3.94;60.84;101518.59;5069892;28;20482;-70
2022/03/13 03:49:47;;;;;;;21.97;10.60;;;;;;;-3.94;60.83;101520.25;5069805;28;20444;-74
2022/03/13 03:52:13;;;;;;;22.13;10.83;;;;;;;-4.00;61.58;101518.28;5065649;28;20831;-70
2022/03/13 03:54:40;;;;;;;23.17;11.93;;;;;;;-4.01;60.87;101516.53;5073801;28;20459;-71
2022/03/13 03:57:07;;;;;;;18.83;10.63;;;;;;;-3.99;60.53;101520.06;5072971;28;20536;-71
2022/03/13 03:59:33;;;;;;;20.63;10.97;;;;;;;-4.01;60.33;101514.88;5073419;28;20892;-71
2022/03/13 04:02:00;;;;;;;20.17;9.60;;;;;;;-4.00;61.06;101513.19;5069173;28;20959;-71
2022/03/13 04:04:27;;;;;;;26.20;11.17;;;;;;;-4.00;60.77;101508.97;5068368;28;20496;-70
2022/03/13 04:06:54;;;;;;;19.60;11.37;;;;;;;-4.01;60.03;101516.53;5069695;28;20465;-70
2022/03/13 04:09:21;;;;;;;25.10;11.60;;;;;;;-4.02;59.58;101519.91;5074571;28;20486;-71
2022/03/13 04:11:47;;;;;;;21.33;10.70;;;;;;;-4.03;59.26;101516.50;5068726;28;20458;-74
2022/03/13 04:14:15;;;;;;;22.90;10.67;;;;;;;-4.08;61.12;101515.41;5068452;28;20446;-71
2022/03/13 04:16:42;;;;;;;22.50;10.57;;;;;;;-4.06;60.65;101518.03;5054806;28;21085;-70
2022/03/13 04:19:09;;;;;;;22.10;10.17;;;;;;;-4.03;65.63;101515.59;5075267;28;20480;-71
2022/03/13 04:21:39;;;;;;;19.93;10.13;;;;;;;-4.10;60.23;101519.50;5051536;28;20461;-71
2022/03/13 04:24:06;;;;;;;20.07;10.37;;;;;;;-4.13;60.57;101514.31;5073767;28;20436;-73
2022/03/13 04:26:33;;;;;;;18.40;10.47;;;;;;;-4.16;61.08;101513.28;5068428;28;20800;-73
2022/03/13 04:28:59;;;;;;;21.23;10.83;;;;;;;-4.19;61.25;101514.00;5067531;28;20456;-71
2022/03/13 04:31:25;;;;;;;23.47;11.07;;;;;;;-4.19;60.79;101512.34;5071611;28;20751;-71
2022/03/13 04:33:53;;;;;;;19.23;10.30;;;;;;;-4.21;61.57;101510.50;5070038;28;20448;-71
2022/03/13 04:36:20;;;;;;;17.43;10.07;;;;;;;-4.23;60.39;101507.88;5065555;28;20440;-70
2022/03/13 04:38:48;;;;;;;23.73;11.00;;;;;;;-4.21;60.37;101518.16;5072685;28;20497;-72
2022/03/13 04:41:14;;;;;;;22.10;11.17;;;;;;;-4.18;60.19;101518.28;5068562;28;20458;-74
2022/03/13 04:43:41;;;;;;;23.63;11.57;;;;;;;-4.20;59.71;101513.13;5068295;28;20484;-71
2022/03/13 04:46:08;;;;;;;23.57;11.13;;;;;;;-4.18;59.80;101510.66;5068411;28;20472;-72
2022/03/13 04:48:34;;;;;;;24.17;10.60;;;;;;;-4.16;59.79;101501.41;5070158;28;20466;-71
2022/03/13 04:51:01;;;;;;;22.20;10.70;;;;;;;-4.19;60.19;101503.81;5079896;28;20448;-72
2022/03/13 04:53:30;;;;;;;19.27;11.00;;;;;;;-4.17;59.47;101499.66;5049874;28;20448;-72
2022/03/13 04:55:58;;;;;;;22.13;10.37;;;;;;;-4.19;60.40;101498.72;5066657;28;20453;-72
2022/03/13 04:58:24;;;;;;;21.43;10.43;;;;;;;-4.22;60.17;101503.66;5068324;28;20497;-71
2022/03/13 05:00:53;;;;;;;21.97;10.37;;;;;;;-4.26;61.93;101505.19;5067844;28;20502;-71
2022/03/13 05:03:19;;;;;;;19.47;9.53;;;;;;;-4.28;62.46;101504.22;5067319;28;20452;-70
2022/03/13 05:05:46;;;;;;;25.27;10.67;;;;;;;-4.28;61.08;101511.00;5068180;28;20481;-71
2022/03/13 05:08:14;;;;;;;22.80;10.97;;;;;;;-4.31;61.83;101506.66;5067232;28;21278;-73
2022/03/13 05:10:42;;;;;;;25.10;12.60;;;;;;;-4.37;62.53;101512.28;5047849;28;20460;-72
2022/03/13 05:13:13;;;;;;;29.10;12.57;;;;;;;-4.41;61.28;101512.09;5050463;28;20476;-71
2022/03/13 05:15:40;;;;;;;28.53;13.50;;;;;;;-4.41;61.35;101519.72;5053981;28;20467;-72
2022/03/13 05:18:07;;;;;;;24.57;12.20;;;;;;;-4.41;61.57;101514.63;5071604;28;20475;-72
2022/03/13 05:20:35;;;;;;;28.87;14.03;;;;;;;-4.46;63.09;101518.63;5073287;28;21014;-71
2022/03/13 05:23:02;;;;;;;26.87;13.00;;;;;;;-4.46;63.71;101516.09;5067819;28;20869;-71
2022/03/13 05:25:30;;;;;;;24.97;13.03;;;;;;;-4.50;62.42;101520.16;5068848;28;20477;-71
2022/03/13 05:27:57;;;;;;;29.13;14.83;;;;;;;-4.46;61.90;101522.03;5065182;28;20482;-70
2022/03/13 05:30:25;;;;;;;24.27;12.03;;;;;;;-4.46;61.91;101516.94;5049340;28;20463;-72
2022/03/13 05:32:51;;;;;;;29.27;14.30;;;;;;;-4.44;61.56;101522.13;5068129;28;20440;-72
2022/03/13 05:35:18;;;;;;;29.67;13.37;;;;;;;-4.47;62.06;101527.91;5067471;28;20455;-71
2022/03/13 05:37:45;;;;;;;26.27;12.37;;;;;;;-4.49;62.21;101524.44;5072565;28;20468;-71
2022/03/13 05:40:14;;;;;;;27.43;14.83;;;;;;;-4.51;62.08;101532.81;5054451;28;20457;-71
2022/03/13 05:42:41;;;;;;;31.83;12.60;;;;;;;-4.45;62.27;101533.09;5067567;28;20452;-71
2022/03/13 05:45:10;;;;;;;34.13;15.50;;;;;;;-4.47;62.19;101529.59;5067391;28;20480;-71
2022/03/13 05:47:45;;;;;;;31.43;16.03;;;;;;;-4.47;62.68;101543.19;5067981;28;21036;-71
2022/03/13 05:50:11;;;;;;;23.80;12.53;;;;;;;-4.49;63.23;101547.34;5063538;28;20454;-71
2022/03/13 05:52:37;;;;;;;29.63;15.27;;;;;;;-4.46;65.12;101546.63;5069026;28;20452;-72
2022/03/13 05:55:05;;;;;;;29.43;16.43;;;;;;;-4.42;64.32;101538.34;5075068;28;20464;-71
2022/03/13 05:57:31;;;;;;;22.73;12.17;;;;;;;-4.38;62.71;101537.69;5066870;28;20472;-71
2022/03/13 05:59:58;;;;;;;22.90;12.27;;;;;;;-4.36;63.01;101541.19;5067152;28;20929;-71
2022/03/13 06:02:26;;;;;;;24.67;13.03;;;;;;;-4.33;64.51;101538.78;5045795;28;20448;-72
2022/03/13 06:04:54;;;;;;;22.70;11.97;;;;;;;-4.30;62.99;101540.63;5070734;28;20480;-71
2022/03/13 06:07:21;;;;;;;23.37;12.50;;;;;;;-4.31;63.60;101541.41;5070293;28;21061;-71
2022/03/13 06:09:47;;;;;;;24.10;11.73;;;;;;;-4.24;64.73;101543.44;5067198;28;20445;-72
2022/03/13 06:12:16;;;;;;;23.10;11.93;;;;;;;-4.20;63.32;101550.47;5066931;28;20452;-72
2022/03/13 06:14:43;;;;;;;19.00;11.50;;;;;;;-4.14;62.76;101554.97;5069301;28;20444;-71
2022/03/13 06:17:10;;;;;;;23.03;11.40;;;;;;;-4.13;63.48;101549.06;5066609;28;20452;-71
2022/03/13 06:19:39;;;;;;;22.30;11.57;;;;;;;-4.13;63.26;101552.50;5057470;28;20979;-74
2022/03/13 06:22:07;;;;;;;20.60;10.77;;;;;;;-4.06;64.70;101543.50;5071211;28;20483;-73
2022/03/13 06:24:34;;;;;;;21.23;12.10;;;;;;;-4.02;61.80;101547.94;5075408;28;20454;-72
2022/03/13 06:27:01;;;;;;;23.40;11.90;;;;;;;-3.96;61.84;101554.97;5074664;28;20470;-73
2022/03/13 06:29:27;;;;;;;24.10;11.97;;;;;;;-3.89;61.07;101552.78;5076931;28;20445;-72
2022/03/13 06:31:54;;;;;;;31.30;15.33;;;;;;;-3.84;61.23;101553.88;5071470;28;20480;-72
2022/03/13 06:34:20;;;;;;;21.90;11.77;;;;;;;-3.73;60.04;101564.59;5070336;28;20960;-71
2022/03/13 06:36:47;;;;;;;22.33;10.73;;;;;;;-3.65;59.58;101563.28;5069852;28;20445;-71
2022/03/13 06:39:14;;;;;;;23.03;11.33;;;;;;;-3.59;59.51;101572.00;5070827;28;21083;-72
2022/03/13 06:41:41;;;;;;;19.43;11.20;;;;;;;-3.53;59.56;101570.63;5051671;28;20573;-71
2022/03/13 06:44:08;;;;;;;22.80;11.87;;;;;;;-3.47;59.35;101570.88;5072701;28;21069;-71
2022/03/13 06:46:34;;;;;;;22.20;10.90;;;;;;;-3.37;58.66;101577.31;5070560;28;20480;-72
2022/03/13 06:49:05;;;;;;;23.53;12.07;;;;;;;-3.28;58.52;101569.19;5075715;28;20457;-72
2022/03/13 06:51:32;;;;;;;21.13;10.83;;;;;;;-3.11;57.98;101575.94;5070049;28;20536;-70
2022/03/13 06:53:58;;;;;;;23.80;11.47;;;;;;;-2.95;57.33;101572.38;5075228;28;20453;-74
2022/03/13 06:56:26;;;;;;;22.60;11.27;;;;;;;-2.82;56.96;101578.88;5052825;28;20481;-71
2022/03/13 06:58:55;;;;;;;21.73;11.03;;;;;;;-2.72;56.61;101577.63;5069688;28;20460;-71
2022/03/13 07:01:22;;;;;;;20.07;10.87;;;;;;;-2.61;55.95;101575.53;5050354;28;20460;-72
2022/03/13 07:03:49;;;;;;;23.53;11.13;;;;;;;-2.50;56.00;101582.84;5069294;28;20465;-72
2022/03/13 07:06:16;;;;;;;22.43;11.57;;;;;;;-2.41;56.29;101581.47;5064767;28;20480;-71
2022/03/13 07:08:42;;;;;;;21.00;10.90;;;;;;;-2.32;56.22;101582.75;5072493;28;20484;-72
2022/03/13 07:11:08;;;;;;;22.47;11.27;;;;;;;-2.17;55.86;101576.50;5050810;28;20466;-71
2022/03/13 07:13:36;;;;;;;22.43;11.50;;;;;;;-2.03;55.20;101579.63;5065134;28;20474;-72
2022/03/13 07:16:04;;;;;;;24.63;12.00;;;;;;;-1.94;55.03;101577.44;5061028;28;20887;-75
2022/03/13 07:18:30;;;;;;;22.87;11.73;;;;;;;-1.83;54.92;101572.75;5062467;28;21127;-73
2022/03/13 07:20:57;;;;;;;25.87;12.23;;;;;;;-1.66;54.46;101571.72;5062353;28;20460;-72
2022/03/13 07:23:24;;;;;;;26.83;11.90;;;;;;;-1.57;54.23;101573.75;5061013;28;20463;-71
2022/03/13 07:25:51;;;;;;;21.43;10.97;;;;;;;-1.41;53.31;101577.78;5061088;28;20483;-72
2022/03/13 07:28:18;;;;;;;22.67;11.90;;;;;;;-1.31;53.32;101564.53;5060158;28;20499;-71
2022/03/13 07:30:47;;;;;;;25.67;12.83;;;;;;;-1.10;52.97;101569.56;5060218;28;20197;-72
2022/03/13 07:33:14;;;;;;;23.50;12.97;;;;;;;-1.04;53.03;101569.81;5059935;28;20466;-72
2022/03/13 07:35:40;;;;;;;22.77;11.93;;;;;;;-0.98;52.47;101562.31;5058998;28;20294;-74
2022/03/13 07:38:07;;;;;;;21.87;10.47;;;;;;;-0.87;51.72;101562.72;5059945;28;20222;-72
2022/03/13 07:40:34;;;;;;;22.00;10.57;;;;;;;-0.77;51.49;101556.25;5058934;28;20625;-73
2022/03/13 07:43:02;;;;;;;20.93;10.00;;;;;;;-0.72;51.16;101564.97;5040396;28;20292;-72
2022/03/13 07:45:29;;;;;;;17.70;9.80;;;;;;;-0.60;50.91;101561.94;5069051;28;20689;-74
2022/03/13 07:47:59;;;;;;;21.03;10.57;;;;;;;-0.44;50.19;101559.09;5054338;28;20229;-72
2022/03/13 07:50:26;;;;;;;18.40;9.20;;;;;;;-0.21;50.40;101559.00;5034977;28;20318;-74
2022/03/13 07:52:52;;;;;;;16.43;8.53;;;;;;;-0.15;48.80;101563.44;5054867;28;20195;-75
2022/03/13 07:55:21;;;;;;;15.87;8.00;;;;;;;0.04;47.35;101558.09;5055145;28;20198;-76
2022/03/13 07:57:48;;;;;;;17.13;8.57;;;;;;;0.08;48.28;101562.47;5054225;28;20229;-75
2022/03/13 08:00:17;;;;;;;12.40;8.00;;;;;;;0.25;47.04;101568.16;5052215;28;20233;-73
2022/03/13 08:02:45;;;;;;;16.23;8.40;;;;;;;0.34;47.44;101560.72;5054878;28;20309;-74
2022/03/13 08:05:13;;;;;;;14.57;7.87;;;;;;;0.69;45.23;101568.63;5054590;28;20328;-74
2022/03/13 08:07:40;;;;;;;14.60;7.67;;;;;;;0.75;45.90;101563.66;5052685;28;20222;-73
2022/03/13 08:10:06;;;;;;;17.10;7.70;;;;;;;0.99;44.42;101564.31;5052851;28;20199;-73
2022/03/13 08:12:34;;;;;;;14.00;7.50;;;;;;;1.22;44.24;101560.69;5053080;28;20573;-73
2022/03/13 08:15:01;;;;;;;11.60;7.20;;;;;;;1.29;44.16;101562.59;5052383;28;20676;-74
2022/03/13 08:17:28;;;;;;;15.77;7.60;;;;;;;1.36;44.22;101561.06;5050977;28;20218;-72
2022/03/13 08:19:57;;;;;;;14.53;7.33;;;;;;;1.49;43.37;101564.81;5051816;28;20296;-74
2022/03/13 08:22:25;;;;;;;12.10;6.67;;;;;;;1.55;43.70;101575.25;5051408;28;20248;-76
2022/03/13 08:24:51;;;;;;;13.43;6.97;;;;;;;1.83;42.60;101565.66;5037534;28;20194;-75
2022/03/13 08:27:17;;;;;;;15.67;8.03;;;;;;;1.95;42.54;101565.97;5049491;28;20234;-73
2022/03/13 08:29:44;;;;;;;16.27;7.00;;;;;;;2.06;41.62;101569.69;5051959;28;20217;-74
2022/03/13 08:32:11;;;;;;;12.57;6.57;;;;;;;2.27;40.59;101574.47;5049069;28;20320;-74
2022/03/13 08:34:39;;;;;;;13.10;7.03;;;;;;;2.40;41.16;101575.59;5045617;28;20202;-73
2022/03/13 08:37:06;;;;;;;12.10;6.60;;;;;;;2.53;40.47;101579.31;5045633;28;20197;-74
2022/03/13 08:39:34;;;;;;;9.83;6.20;;;;;;;2.73;40.32;101569.47;5026973;28;20593;-74
2022/03/13 08:42:01;;;;;;;10.13;5.53;;;;;;;2.96;38.71;101569.94;5045804;28;20202;-74
2022/03/13 08:44:28;;;;;;;11.07;6.07;;;;;;;3.02;39.18;101574.31;5053407;28;20206;-73
2022/03/13 08:46:54;;;;;;;11.57;6.50;;;;;;;3.10;38.97;101567.63;5030212;28;20754;-74
2022/03/13 08:49:21;;;;;;;11.23;5.70;;;;;;;3.16;39.03;101566.88;5045857;28;20800;-74
2022/03/13 08:51:48;;;;;;;11.00;5.77;;;;;;;3.18;39.00;101571.22;5045651;28;20201;-74
2022/03/13 08:54:16;;;;;;;10.77;5.83;;;;;;;3.32;38.09;101573.19;5027302;28;20887;-74
2022/03/13 08:56:44;;;;;;;11.63;5.53;;;;;;;3.49;37.86;101565.78;5047215;28;20244;-73
2022/03/13 08:59:10;;;;;;;8.30;5.33;;;;;;;3.60;37.79;101574.56;5046073;28;20233;-75
2022/03/13 09:01:37;;;;;;;9.30;5.40;;;;;;;3.74;37.26;101570.50;5042635;28;20203;-73
2022/03/13 09:04:03;;;;;;;8.50;5.17;;;;;;;3.86;36.81;101569.84;5042308;28;20209;-75
2022/03/13 09:06:30;;;;;;;14.07;6.53;;;;;;;4.06;36.23;101572.75;5028403;28;20214;-74
2022/03/13 09:08:57;;;;;;;10.37;6.10;;;;;;;4.15;36.24;101579.75;5038772;28;20222;-75
2022/03/13 09:11:23;;;;;;;12.00;5.60;;;;;;;4.21;37.02;101579.88;5034454;28;20210;-75
2022/03/13 09:13:51;;;;;;;9.73;5.03;;;;;;;4.30;36.84;101576.56;5035127;28;20206;-75
2022/03/13 09:16:19;;;;;;;11.60;5.90;;;;;;;4.57;35.30;101581.25;5036370;28;20206;-75
2022/03/13 09:18:45;;;;;;;9.87;5.40;;;;;;;4.65;35.34;101576.19;5033208;28;20223;-74
2022/03/13 09:21:13;;;;;;;13.50;5.27;;;;;;;4.72;35.44;101576.28;5035945;28;20199;-75
2022/03/13 09:23:39;;;;;;;13.40;6.33;;;;;;;4.83;36.32;101572.97;5039884;28;20207;-75
2022/03/13 09:26:05;;;;;;;7.80;5.50;;;;;;;4.96;35.77;101577.47;5032757;28;21355;-74
2022/03/13 09:28:32;;;;;;;11.43;6.27;;;;;;;5.07;35.37;101573.28;5036744;28;20226;-74
2022/03/13 09:31:00;;;;;;;11.70;6.13;;;;;;;5.15;34.58;101572.50;5034251;28;20207;-74
2022/03/13 09:33:27;;;;;;;22.30;6.60;;;;;;;5.25;34.57;101566.56;5034148;28;20206;-74
2022/03/13 09:35:54;;;;;;;9.13;6.07;;;;;;;5.36;33.33;101575.31;5035294;28;20668;-74
2022/03/13 09:38:20;;;;;;;8.63;4.90;;;;;;;5.53;34.14;101570.31;5014633;28;20313;-73
2022/03/13 09:40:46;;;;;;;13.30;4.30;;;;;;;5.64;32.60;101576.44;5034215;28;20203;-74
2022/03/13 09:43:13;;;;;;;11.03;4.10;;;;;;;5.77;31.34;101573.97;5034889;28;20214;-75
2022/03/13 09:45:39;;;;;;;7.83;3.80;;;;;;;5.95;31.08;101583.63;5031703;28;20229;-75
2022/03/13 09:48:09;;;;;;;19.33;8.60;;;;;;;6.09;31.57;101579.47;5031185;28;20222;-75
2022/03/13 09:50:36;;;;;;;31.70;13.97;;;;;;;6.20;32.82;101569.19;5029709;28;20200;-75
2022/03/13 09:53:03;;;;;;;24.17;10.33;;;;;;;6.29;32.53;101571.81;5014253;28;20198;-75
2022/03/13 09:55:30;;;;;;;12.47;7.13;;;;;;;6.52;30.42;101573.69;5034412;28;20210;-75
2022/03/13 09:57:56;;;;;;;7.07;4.43;;;;;;;6.57;31.23;101577.19;5034678;28;20319;-74
2022/03/13 10:00:25;;;;;;;6.83;4.20;;;;;;;6.56;29.88;101578.03;5016232;28;21058;-75
2022/03/13 10:02:54;;;;;;;7.37;4.20;;;;;;;6.63;30.40;101578.09;5033380;28;20769;-75
2022/03/13 10:05:23;;;;;;;8.87;4.37;;;;;;;6.77;29.67;101577.28;5035844;28;21795;-75
2022/03/13 10:07:55;;;;;;;7.47;4.43;;;;;;;6.75;30.02;101579.00;5034833;28;20764;-75
2022/03/13 10:10:22;;;;;;;9.20;4.43;;;;;;;6.75;29.53;101571.22;5037027;28;20408;-74
2022/03/13 10:12:49;;;;;;;10.33;6.63;;;;;;;6.92;28.66;101563.53;5034703;28;20214;-75
2022/03/13 10:15:16;;;;;;;8.80;5.20;;;;;;;7.08;27.65;101567.91;5035433;28;20294;-75
2022/03/13 10:17:43;;;;;;;10.80;5.00;;;;;;;7.17;27.96;101560.13;5034388;28;20223;-75
2022/03/13 10:20:15;;;;;;;9.00;4.70;;;;;;;7.25;28.66;101555.00;5036217;28;20248;-73
2022/03/13 10:22:45;;;;;;;7.90;4.43;;;;;;;7.26;28.30;101561.91;5034910;28;20665;-75
2022/03/13 10:25:13;;;;;;;7.50;5.03;;;;;;;7.36;28.94;101553.28;5017811;28;21552;-74
2022/03/13 10:27:40;;;;;;;10.33;5.50;;;;;;;7.49;27.11;101561.06;5033906;28;20240;-75
2022/03/13 10:30:08;;;;;;;9.50;5.10;;;;;;;7.53;27.34;101565.44;5034560;28;20203;-75
2022/03/13 10:32:36;;;;;;;7.90;4.70;;;;;;;7.68;27.89;101557.63;5035027;28;20199;-75
2022/03/13 10:35:03;;;;;;;11.23;4.73;;;;;;;7.70;28.43;101550.72;5034832;28;21007;-75
2022/03/13 10:37:37;;;;;;;8.07;4.57;;;;;;;7.72;28.93;101542.94;5036974;28;20241;-75
2022/03/13 10:40:15;;;;;;;11.13;5.43;;;;;;;7.77;29.42;101547.28;5035188;28;20212;-74
2022/03/13 10:42:43;;;;;;;8.87;4.90;;;;;;;7.84;28.04;101550.72;5035010;28;20484;-77
2022/03/13 10:45:12;;;;;;;7.83;4.57;;;;;;;7.87;28.25;101548.13;5036449;28;20293;-75
2022/03/13 10:47:39;;;;;;;8.73;5.50;;;;;;;7.99;27.99;101552.47;5040760;28;20280;-75
2022/03/13 10:50:06;;;;;;;6.37;4.60;;;;;;;8.05;27.79;101549.00;5039684;28;21028;-76
2022/03/13 10:52:36;;;;;;;5.77;4.57;;;;;;;8.12;25.78;101548.09;5041016;28;20569;-75
2022/03/13 10:55:19;;;;;;;6.60;4.40;;;;;;;8.13;27.12;101545.53;5055653;28;20190;-73
2022/03/13 10:57:51;;;;;;;8.53;4.57;;;;;;;8.16;26.71;101547.22;5022446;28;20348;-73
2022/03/13 11:00:18;;;;;;;10.80;4.87;;;;;;;8.21;27.25;101550.69;5040098;28;20206;-72
2022/03/13 11:02:45;;;;;;;14.27;4.43;;;;;;;8.27;27.60;101536.84;5040847;28;21547;-73
2022/03/13 11:05:11;;;;;;;6.63;4.80;;;;;;;8.30;27.75;101536.81;5040969;28;20603;-72
2022/03/13 11:07:38;;;;;;;8.07;4.77;;;;;;;8.57;26.41;101535.94;5040194;28;20995;-75
2022/03/13 11:10:07;;;;;;;7.90;4.53;;;;;;;8.60;26.32;101540.25;5041507;28;20229;-75
2022/03/13 11:12:35;;;;;;;5.70;4.40;;;;;;;8.77;25.49;101538.44;5042237;28;20203;-75
2022/03/13 11:15:02;;;;;;;6.97;4.53;;;;;;;8.90;25.29;101534.94;5042384;28;20412;-75
2022/03/13 11:17:31;;;;;;;14.47;4.37;;;;;;;8.99;25.12;101536.63;5039875;28;20218;-75
2022/03/13 11:19:58;;;;;;;8.53;4.47;;;;;;;8.94;26.04;101530.56;5040518;28;20207;-74